• Join FlightAware (Why Join?)
  • Login
  • US Flag 
03:37PM EST


 

Airport Tracker/Info


-or-


 

Live Flight TrackerFlight Track Log ✈ SWA1275 ✈ 09-Aug-2013 ✈ KBWI - KSAN

Flight Track Log - Related Links

Times and Time Zones

All times are in EDT time to prevent confusion due to time zone crossing. See the SWA1275 flight status page for this flight to view local times or setup timezone preferences in your user account.

Time Position Orientation Groundspeed Altitude Reporting Facility
EDT Latitude Longitude Course Direction KTS MPH feet Rate Location/Type
10:11AM 39.1770 -76.7150 276° West 169 194 1,700  Level FlightAware
10:11AM 39.1790 -76.7410 276° West 205 236 2,100 780 Climbing FlightAware
10:11AM 39.1800 -76.7480 280° West 209 241 2,200 2,100 Climbing FlightAware
10:12AM 39.1820 -76.7840 274° West 222 255 3,400 2,640 Climbing FlightAware
10:12AM 39.1860 -76.8250 277° West 251 289 4,400 2,640 Climbing FlightAware
10:13AM 39.1900 -76.8730 276° West 253 291 5,900 2,880 Climbing FlightAware
10:13AM 39.1910 -76.8880 275° West 255 293 6,400 2,760 Climbing FlightAware
10:13AM 39.1940 -76.9160 278° West 258 297 7,300 2,700 Climbing FlightAware
10:14AM 39.1970 -76.9580 275° West 263 303 8,400 2,760 Climbing FlightAware
10:14AM 39.2000 -76.9890 277° West 263 303 9,400 2,400 Climbing FlightAware
10:14AM 39.2040 -77.0440 275° West 278 320 10,600 1,500 Climbing FlightAware
10:15AM 39.2090 -77.1060 276° West 315 362 11,200 960 Climbing FlightAware
10:15AM 39.2040 -77.1440 260° West 334 384 11,500 1,320 Climbing FlightAware
10:16AM 39.1920 -77.1690 238° Southwest 343 395 12,000 2,100 Climbing FlightAware
10:16AM 39.1730 -77.1890 219° Southwest 351 404 12,600 2,280 Climbing FlightAware
10:16AM 39.1260 -77.2300 214° Southwest 362 417 13,900 2,160 Climbing FlightAware
10:17AM 39.0700 -77.2770 213° Southwest 368 423 15,300 1,980 Climbing FlightAware
10:18AM 39.0220 -77.3200 215° Southwest 373 429 16,400 1,920 Climbing FlightAware
10:18AM 39.0050 -77.3470 231° Southwest 370 426 16,900 1,980 Climbing FlightAware
10:18AM 38.9970 -77.3770 251° West 371 427 17,400 1,980 Climbing FlightAware
10:19AM 38.9840 -77.4450 256° West 373 429 18,400 1,740 Climbing FlightAware
10:19AM 38.9720 -77.5170 258° West 381 438 19,300 1,500 Climbing FlightAware
10:20AM 38.9550 -77.6090 257° West 389 448 20,300 1,500 Climbing FlightAware
10:21AM 38.9390 -77.7000 257° West 398 458 21,300 1,260 Climbing FlightAware
10:21AM 38.9250 -77.7840 258° West 410 472 21,900 1,200 Climbing FlightAware
10:22AM 38.9120 -77.8670 259° West 415 478 22,700 1,440 Climbing FlightAware
10:22AM 38.8960 -77.9600 258° West 414 476 23,700 1,320 Climbing FlightAware
10:23AM 38.8790 -78.0600 258° West 422 486 24,500 1,080 Climbing FlightAware
10:24AM 38.8690 -78.1220 258° West 426 490 24,900 1,080 Climbing FlightAware
10:24AM 38.8560 -78.2060 259° West 430 495 25,600 1,200 Climbing FlightAware
10:25AM 38.8530 -78.3000 268° West 433 498 26,300 1,020 Climbing FlightAware
10:25AM 38.8520 -78.3900 269° West 440 506 26,800 1,020 Climbing FlightAware
10:26AM 38.8510 -78.4760 269° West 439 505 27,500 1,200 Climbing FlightAware
10:26AM 38.8500 -78.5710 269° West 439 505 28,200 1,200 Climbing FlightAware
10:27AM 38.8490 -78.6550 269° West 438 504 28,900 1,020 Climbing FlightAware
10:28AM 38.8480 -78.7540 269° West 441 507 29,400 720 Climbing FlightAware
10:28AM 38.8460 -78.8460 268° West 444 511 29,800 840 Climbing FlightAware
10:29AM 38.8450 -78.9330 269° West 444 511 30,400 1,080 Climbing FlightAware
10:29AM 38.8430 -79.0250 268° West 439 505 31,100 1,200 Climbing FlightAware
10:30AM 38.8420 -79.1190 269° West 435 501 31,800 1,440 Climbing FlightAware
10:31AM 38.8400 -79.2050 268° West 422 486 32,800 1,620 Climbing FlightAware
10:31AM 38.8390 -79.2880 269° West 412 474 33,700 1,020 Climbing FlightAware
10:32AM 38.8370 -79.3710 268° West 413 475 34,000 240 Climbing FlightAware
10:32AM 38.8350 -79.4590 268° West 412 474 34,000  Level FlightAware
10:33AM 38.8330 -79.5450 268° West 413 475 34,000  Level FlightAware
10:34AM 38.8310 -79.6560 269° West 414 476 34,000  Level FlightAware
10:34AM 38.8290 -79.7320 268° West 416 479 34,000  Level FlightAware
10:35AM 38.8270 -79.8160 268° West 420 483 34,000  Level FlightAware
10:35AM 38.8250 -79.9050 268° West 422 486 34,000  Level FlightAware
10:36AM 38.8230 -80.0010 268° West 423 487 34,000  Level FlightAware
10:37AM 38.8210 -80.0910 268° West 421 484 34,000  Level FlightAware
10:37AM 38.8180 -80.1790 268° West 422 486 34,000  Level FlightAware
10:38AM 38.8160 -80.2640 268° West 423 487 34,000  Level FlightAware
10:38AM 38.8130 -80.3600 268° West 423 487 34,000  Level FlightAware
10:39AM 38.8110 -80.4300 268° West 422 486 34,000  Level FlightAware
10:39AM 38.8080 -80.5280 268° West 423 487 34,000  Level FlightAware
10:40AM 38.8060 -80.6140 268° West 424 488 34,000  Level FlightAware
10:41AM 38.8030 -80.7040 268° West 424 488 34,000  Level FlightAware
10:41AM 38.8000 -80.7900 267° West 423 487 34,000  Level FlightAware
10:42AM 38.7970 -80.8840 268° West 422 486 34,000  Level FlightAware
10:42AM 38.7940 -80.9650 267° West 421 484 34,000  Level FlightAware
10:43AM 38.7920 -81.0500 268° West 419 482 34,000  Level FlightAware
10:44AM 38.7890 -81.1390 268° West 418 481 34,000  Level FlightAware
10:44AM 38.7850 -81.2320 267° West 418 481 34,000  Level FlightAware
10:45AM 38.7830 -81.3060 268° West 418 481 34,000  Level FlightAware
10:45AM 38.7790 -81.3910 267° West 419 482 34,000  Level FlightAware
10:46AM 38.7760 -81.4890 268° West 419 482 34,000  Level FlightAware
10:47AM 38.7720 -81.5780 267° West 419 482 34,000  Level FlightAware
10:47AM 38.7690 -81.6620 267° West 418 481 34,000  Level FlightAware
10:48AM 38.7660 -81.7410 267° West 418 481 34,000  Level FlightAware
10:48AM 38.7620 -81.8320 267° West 416 479 34,000  Level FlightAware
10:49AM 38.7590 -81.9160 267° West 415 478 34,000  Level FlightAware
10:49AM 38.7560 -81.9900 267° West 414 476 34,000  Level FlightAware
10:50AM 38.7520 -82.0870 267° West 413 475 34,000  Level FlightAware
10:51AM 38.7490 -82.1740 267° West 413 475 34,000  Level FlightAware
10:51AM 38.7450 -82.2650 267° West 413 475 34,000  Level FlightAware
10:52AM 38.7420 -82.3440 267° West 412 474 34,000  Level FlightAware
10:52AM 38.7390 -82.4260 267° West 413 475 34,000  Level FlightAware
10:53AM 38.7360 -82.5110 267° West 414 476 34,000  Level FlightAware
10:54AM 38.7320 -82.6070 267° West 415 478 34,000  Level FlightAware
10:54AM 38.7290 -82.6830 267° West 416 479 34,000  Level FlightAware
10:55AM 38.7250 -82.7660 266° West 417 480 34,000  Level FlightAware
10:55AM 38.7210 -82.8530 267° West 418 481 34,000  Level FlightAware
10:56AM 38.7170 -82.9470 267° West 420 483 34,000  Level FlightAware
10:56AM 38.7140 -83.0310 267° West 420 483 34,000  Level FlightAware
10:57AM 38.7090 -83.1210 266° West 421 484 34,000  Level FlightAware
10:58AM 38.7060 -83.2030 267° West 421 484 34,000  Level FlightAware
10:58AM 38.7020 -83.2810 266° West 421 484 34,000  Level FlightAware
10:59AM 38.6980 -83.3690 267° West 420 483 34,000  Level FlightAware
10:59AM 38.6930 -83.4670 266° West 419 482 34,000  Level FlightAware
11:00AM 38.6890 -83.5550 267° West 418 481 34,000  Level FlightAware
11:00AM 38.6850 -83.6330 266° West 419 482 34,000  Level FlightAware
11:01AM 38.6810 -83.7230 267° West 418 481 34,000  Level FlightAware
11:02AM 38.6760 -83.8110 266° West 418 481 34,000  Level FlightAware
11:02AM 38.6720 -83.9010 267° West 419 482 34,000  Level FlightAware
11:03AM 38.6670 -83.9950 266° West 420 483 34,000  Level FlightAware
11:04AM 38.6610 -84.0940 266° West 421 484 34,000 120 Level FlightAware
11:04AM 38.6560 -84.1850 266° West 423 487 34,200 780 Climbing FlightAware
11:05AM 38.6520 -84.2720 267° West 413 475 35,000 1,020 Climbing FlightAware
11:05AM 38.6520 -84.3560 270° West 415 478 35,400 600 Climbing FlightAware
11:06AM 38.6570 -84.4330 275° West 415 478 35,700 480 Climbing FlightAware
11:06AM 38.6620 -84.5220 274° West 415 478 36,000 240 Climbing FlightAware
11:07AM 38.6670 -84.6000 275° West 416 479 36,000  Level FlightAware
11:08AM 38.6720 -84.6950 274° West 416 479 36,000  Level FlightAware
11:08AM 38.6770 -84.7820 274° West 416 479 36,000  Level FlightAware
11:09AM 38.6820 -84.8630 275° West 416 479 36,000  Level FlightAware
11:09AM 38.6870 -84.9500 274° West 416 479 36,000  Level FlightAware
11:10AM 38.6920 -85.0410 274° West 416 479 36,000  Level FlightAware
11:10AM 38.6960 -85.1170 274° West 417 480 36,000  Level FlightAware
11:11AM 38.7000 -85.2030 273° West 416 479 36,000  Level FlightAware
11:12AM 38.7050 -85.2910 274° West 418 481 36,000  Level FlightAware
11:12AM 38.7100 -85.3810 274° West 420 483 36,000  Level FlightAware
11:13AM 38.7150 -85.4880 273° West 421 484 36,000  Level FlightAware
11:14AM 38.7190 -85.5690 274° West 423 487 36,000  Level FlightAware
11:14AM 38.7240 -85.6590 274° West 424 488 36,000  Level FlightAware
11:15AM 38.7280 -85.7430 274° West 426 490 36,000  Level FlightAware
11:15AM 38.7320 -85.8330 273° West 428 493 36,000  Level FlightAware
11:16AM 38.7360 -85.9110 274° West 429 494 36,000  Level FlightAware
11:16AM 38.7400 -86.0140 273° West 427 491 36,000  Level FlightAware
11:17AM 38.7440 -86.0990 273° West 427 491 36,000  Level FlightAware
11:18AM 38.7480 -86.1870 273° West 428 493 36,000  Level FlightAware
11:18AM 38.7510 -86.2590 273° West 428 493 36,000  Level FlightAware
11:19AM 38.7560 -86.3500 274° West 428 493 36,000  Level FlightAware
11:19AM 38.7600 -86.4630 273° West 428 493 36,000  Level FlightAware
11:20AM 38.7640 -86.5430 274° West 429 494 36,000  Level FlightAware
11:21AM 38.7680 -86.6400 273° West 429 494 36,000  Level FlightAware
11:21AM 38.7710 -86.7160 273° West 429 494 36,000  Level FlightAware
11:22AM 38.7740 -86.8070 272° West 427 491 36,000  Level FlightAware
11:22AM 38.7780 -86.8920 273° West 426 490 36,000  Level FlightAware
11:23AM 38.7810 -86.9750 273° West 425 489 36,000  Level FlightAware
11:23AM 38.7840 -87.0720 272° West 424 488 36,000  Level FlightAware
11:24AM 38.7880 -87.1660 273° West 423 487 36,000  Level FlightAware
11:25AM 38.7910 -87.2510 273° West 422 486 36,000  Level FlightAware
11:25AM 38.7940 -87.3380 273° West 421 484 36,000  Level FlightAware
11:26AM 38.7970 -87.4210 273° West 420 483 36,000  Level FlightAware
11:26AM 38.8000 -87.5160 272° West 420 483 36,000  Level FlightAware
11:27AM 38.8020 -87.5900 272° West 420 483 36,000  Level FlightAware
11:28AM 38.8050 -87.6840 272° West 420 483 36,000  Level FlightAware
11:28AM 38.8080 -87.7730 273° West 420 483 36,000  Level FlightAware
11:29AM 38.8110 -87.8620 273° West 421 484 36,000  Level FlightAware
11:29AM 38.8130 -87.9420 272° West 420 483 36,000  Level FlightAware
11:30AM 38.8160 -88.0310 273° West 419 482 36,000  Level FlightAware
11:30AM 38.8180 -88.1170 272° West 418 481 36,000  Level FlightAware
11:31AM 38.8200 -88.1920 272° West 418 481 36,000  Level FlightAware
11:32AM 38.8230 -88.2940 272° West 418 481 36,000  Level FlightAware
11:32AM 38.8250 -88.3690 272° West 418 481 36,000  Level FlightAware
11:33AM 38.8280 -88.4670 272° West 418 481 36,000  Level FlightAware
11:33AM 38.8300 -88.5570 272° West 417 480 36,000  Level FlightAware
11:34AM 38.8310 -88.6240 271° West 417 480 36,000  Level FlightAware
11:35AM 38.8340 -88.7190 272° West 415 478 36,000  Level FlightAware
11:35AM 38.8360 -88.8070 272° West 414 476 36,000  Level FlightAware
11:36AM 38.8380 -88.8990 272° West 413 475 36,000  Level FlightAware
11:36AM 38.8390 -88.9710 271° West 415 478 36,000  Level FlightAware
11:37AM 38.8410 -89.0660 272° West 414 476 36,000  Level FlightAware
11:37AM 38.8430 -89.1520 272° West 414 476 36,000  Level FlightAware
11:38AM 38.8440 -89.2280 271° West 413 475 36,000  Level FlightAware
11:39AM 38.8460 -89.3250 272° West 413 475 36,000  Level FlightAware
11:39AM 38.8470 -89.4070 271° West 412 474 36,000  Level FlightAware
11:40AM 38.8490 -89.4910 272° West 411 473 36,000  Level FlightAware
11:40AM 38.8500 -89.5700 271° West 410 472 36,000  Level FlightAware
11:41AM 38.8520 -89.6610 272° West 409 471 36,000  Level FlightAware
11:42AM 38.8530 -89.7400 271° West 409 471 36,000  Level FlightAware
11:42AM 38.8540 -89.8240 271° West 411 473 36,000  Level FlightAware
11:43AM 38.8550 -89.9050 271° West 411 473 36,000  Level FlightAware
11:43AM 38.8560 -90.0030 271° West 411 473 36,000  Level FlightAware
11:44AM 38.8570 -90.0700 271° West 411 473 36,000  Level FlightAware
11:44AM 38.8580 -90.1560 271° West 411 473 36,000  Level FlightAware
11:45AM 38.8590 -90.2340 271° West 411 473 36,000  Level FlightAware
11:46AM 38.8590 -90.3240 270° West 412 474 36,000  Level FlightAware
11:46AM 38.8600 -90.4150 271° West 413 475 36,000  Level FlightAware
11:47AM 38.8580 -90.4970 268° West 411 473 36,000  Level FlightAware
11:47AM 38.8520 -90.5640 263° West 411 473 36,000  Level FlightAware
11:48AM 38.8380 -90.6610 260° West 412 474 36,000  Level FlightAware
11:49AM 38.8350 -90.7620 268° West 417 480 36,000  Level FlightAware
11:49AM 38.8380 -90.8420 273° West 417 480 36,000  Level FlightAware
11:50AM 38.8420 -90.9330 273° West 417 480 36,000  Level FlightAware
11:50AM 38.8450 -91.0090 273° West 417 480 36,000  Level FlightAware
11:51AM 38.8510 -91.1060 275° West 414 476 36,000  Level FlightAware
11:52AM 38.8540 -91.1920 273° West 414 476 36,000  Level FlightAware
11:52AM 38.8580 -91.2670 274° West 414 476 36,000  Level FlightAware
11:53AM 38.8630 -91.3820 273° West 408 470 36,000  Level FlightAware
11:53AM 38.8670 -91.4630 274° West 408 470 36,000  Level FlightAware
11:54AM 38.8710 -91.5510 273° West 407 468 36,000  Level FlightAware
11:55AM 38.8770 -91.6600 274° West 406 467 36,000  Level FlightAware
11:55AM 38.8800 -91.7340 273° West 406 467 36,000  Level FlightAware
11:56AM 38.8830 -91.8100 273° West 406 467 36,000  Level FlightAware
11:56AM 38.8920 -91.9170 276° West 407 468 36,000  Level FlightAware
11:57AM 38.9000 -92.0390 275° West 408 470 36,000  Level FlightAware
11:58AM 38.9050 -92.1270 274° West 409 471 36,000  Level FlightAware
11:58AM 38.9100 -92.2050 275° West 411 473 36,000  Level FlightAware
11:59AM 38.9150 -92.2910 274° West 413 475 36,000  Level FlightAware
12:00PM 38.9200 -92.3830 274° West 413 475 36,000  Level FlightAware
12:00PM 38.9130 -92.4630 264° West 411 473 36,000  Level FlightAware
12:01PM 38.8940 -92.5550 255° West 412 474 36,000  Level FlightAware
12:01PM 38.8830 -92.6070 255° West 413 475 36,000  Level FlightAware
12:02PM 38.8630 -92.7080 256° West 413 475 36,000  Level FlightAware
12:03PM 38.8460 -92.7900 255° West 412 474 36,000  Level FlightAware
12:03PM 38.8260 -92.8860 255° West 412 474 36,000  Level FlightAware
12:04PM 38.8070 -92.9800 255° West 412 474 36,000  Level FlightAware
12:04PM 38.7900 -93.0580 254° West 413 475 36,000  Level FlightAware
12:05PM 38.7730 -93.1400 255° West 413 475 36,000  Level FlightAware
12:06PM 38.7550 -93.2280 255° West 413 475 36,000  Level FlightAware
12:06PM 38.7370 -93.3140 255° West 412 474 36,000  Level FlightAware
12:07PM 38.7210 -93.3860 254° West 411 473 36,000  Level FlightAware
12:07PM 38.7030 -93.4730 255° West 411 473 36,000  Level FlightAware
12:08PM 38.6860 -93.5530 255° West 411 473 36,000  Level FlightAware
12:08PM 38.6690 -93.6330 255° West 410 472 36,000  Level FlightAware
12:09PM 38.6510 -93.7180 255° West 411 473 36,000  Level FlightAware
12:10PM 38.6330 -93.8000 254° West 411 473 36,000  Level FlightAware
12:10PM 38.6140 -93.8850 254° West 411 473 36,000  Level FlightAware
12:11PM 38.5970 -93.9660 255° West 411 473 36,000  Level FlightAware
12:11PM 38.5810 -94.0390 254° West 410 472 36,000  Level FlightAware
12:12PM 38.5660 -94.1090 255° West 411 473 36,000  Level FlightAware
12:13PM 38.5440 -94.2090 254° West 411 473 36,000  Level FlightAware
12:13PM 38.5250 -94.2920 254° West 411 473 36,000  Level FlightAware
12:14PM 38.5070 -94.3760 255° West 411 473 36,000  Level FlightAware
12:14PM 38.4900 -94.4500 254° West 410 472 36,000  Level FlightAware
12:15PM 38.4710 -94.5390 255° West 410 472 36,000  Level FlightAware
12:16PM 38.4510 -94.6270 254° West 410 472 36,000  Level FlightAware
12:16PM 38.4310 -94.7150 254° West 409 471 36,000  Level FlightAware
12:17PM 38.4120 -94.7990 254° West 409 471 36,000  Level FlightAware
12:17PM 38.3960 -94.8710 254° West 410 472 36,000  Level FlightAware
12:18PM 38.3780 -94.9520 254° West 410 472 36,000  Level FlightAware
12:19PM 38.3580 -95.0370 253° West 411 473 36,000  Level FlightAware
12:19PM 38.3420 -95.1100 254° West 413 475 36,000  Level FlightAware
12:20PM 38.3210 -95.1990 253° West 414 476 36,000  Level FlightAware
12:20PM 38.3030 -95.2790 254° West 415 478 36,000  Level FlightAware
12:21PM 38.2830 -95.3640 253° West 416 479 36,000  Level FlightAware
12:21PM 38.2650 -95.4440 254° West 416 479 36,000  Level FlightAware
12:22PM 38.2450 -95.5290 253° West 418 481 36,000  Level FlightAware
12:23PM 38.2280 -95.6030 254° West 418 481 36,000  Level FlightAware
12:23PM 38.2080 -95.6890 254° West 418 481 36,000  Level FlightAware
12:24PM 38.1860 -95.7790 253° West 417 480 36,000  Level FlightAware
12:24PM 38.1680 -95.8570 254° West 417 480 36,000  Level FlightAware
12:25PM 38.1480 -95.9420 253° West 416 479 36,000  Level FlightAware
12:26PM 38.1290 -96.0200 253° West 416 479 36,000  Level FlightAware
12:26PM 38.1090 -96.1050 253° West 415 478 36,000  Level FlightAware
12:27PM 38.0900 -96.1830 253° West 415 478 36,000  Level FlightAware
12:27PM 38.0700 -96.2670 253° West 413 475 36,000  Level FlightAware
12:28PM 38.0520 -96.3430 253° West 414 476 36,000  Level FlightAware
12:28PM 38.0300 -96.4340 253° West 414 476 36,000  Level FlightAware
12:29PM 38.0120 -96.5080 253° West 413 475 36,000  Level FlightAware
12:30PM 37.9920 -96.5900 253° West 413 475 36,000  Level FlightAware
12:30PM 37.9720 -96.6740 253° West 412 474 36,000  Level FlightAware
12:31PM 37.9540 -96.7480 253° West 412 474 36,000  Level FlightAware
12:31PM 37.9330 -96.8320 252° West 410 472 36,000  Level FlightAware
12:32PM 37.9140 -96.9090 253° West 410 472 36,000  Level FlightAware
12:33PM 37.8930 -96.9920 252° West 409 471 36,000  Level FlightAware
12:33PM 37.8730 -97.0730 253° West 409 471 36,000  Level FlightAware
12:34PM 37.8520 -97.1590 253° West 409 471 36,000  Level FlightAware
12:34PM 37.8330 -97.2340 252° West 409 471 36,000  Level FlightAware
12:35PM 37.8130 -97.3160 253° West 410 472 36,000  Level FlightAware
12:35PM 37.7930 -97.3930 252° West 410 472 36,000  Level FlightAware
12:36PM 37.7750 -97.4650 252° West 411 473 36,000  Level FlightAware
12:37PM 37.7410 -97.5510 243° Southwest 412 474 36,000  Level FlightAware
12:37PM 37.7110 -97.6190 241° Southwest 413 475 36,000  Level FlightAware
12:38PM 37.6790 -97.6940 242° Southwest 414 476 36,000  Level FlightAware
12:38PM 37.6440 -97.7760 242° Southwest 414 476 36,000  Level FlightAware
12:39PM 37.6140 -97.8440 241° Southwest 413 475 36,000  Level FlightAware
12:39PM 37.5860 -97.9110 242° Southwest 413 475 36,000  Level FlightAware
12:40PM 37.5500 -97.9960 242° Southwest 415 478 36,000  Level FlightAware
12:41PM 37.5270 -98.0510 242° Southwest 416 479 36,000  Level FlightAware
12:41PM 37.4950 -98.1260 242° Southwest 417 480 36,000  Level FlightAware
12:42PM 37.4620 -98.2060 243° Southwest 417 480 36,000  Level FlightAware
12:42PM 37.4330 -98.2740 242° Southwest 417 480 36,000  Level FlightAware
12:43PM 37.3990 -98.3550 242° Southwest 418 481 36,000  Level FlightAware
12:43PM 37.3700 -98.4240 242° Southwest 416 479 36,000  Level FlightAware
12:44PM 37.3360 -98.5050 242° Southwest 415 478 36,000  Level FlightAware
12:45PM 37.3090 -98.5700 242° Southwest 414 476 36,000  Level FlightAware
12:45PM 37.2760 -98.6490 242° Southwest 413 475 36,000  Level FlightAware
12:46PM 37.2450 -98.7260 243° Southwest 411 473 36,000  Level FlightAware
12:46PM 37.2140 -98.8020 243° Southwest 409 471 36,000  Level FlightAware
12:47PM 37.1860 -98.8700 243° Southwest 409 471 36,000  Level FlightAware
12:48PM 37.1560 -98.9460 244° Southwest 409 471 36,000  Level FlightAware
12:48PM 37.1250 -99.0230 243° Southwest 407 468 36,000  Level FlightAware
12:49PM 37.0930 -99.1030 243° Southwest 407 468 36,000  Level FlightAware
12:49PM 37.0700 -99.1750 248° West 408 470 36,000  Level FlightAware
12:50PM 37.0600 -99.2500 261° West 410 472 36,000  Level FlightAware
12:51PM 37.0500 -99.3380 262° West 409 471 36,000  Level FlightAware
12:51PM 37.0400 -99.4180 261° West 410 472 36,000  Level FlightAware
12:52PM 37.0290 -99.5040 261° West 410 472 36,000  Level FlightAware
12:52PM 37.0190 -99.5840 261° West 410 472 36,000  Level FlightAware
12:53PM 37.0100 -99.6570 261° West 410 472 36,000  Level FlightAware
12:53PM 37.0000 -99.7390 261° West 410 472 36,000  Level FlightAware
12:54PM 36.9900 -99.8140 261° West 410 472 36,000  Level FlightAware
12:55PM 36.9810 -99.8860 261° West 410 472 36,000  Level FlightAware
12:55PM 36.9680 -99.9940 261° West 409 471 36,000  Level FlightAware
12:56PM 36.9560 -100.0780 260° West 409 471 36,000  Level FlightAware
12:57PM 36.9440 -100.1740 261° West 408 470 36,000  Level FlightAware
12:57PM 36.9320 -100.2620 260° West 407 468 36,000  Level FlightAware
12:58PM 36.9220 -100.3370 261° West 407 468 36,000  Level FlightAware
12:59PM 36.9090 -100.4270 260° West 407 468 36,000  Level FlightAware
12:59PM 36.8990 -100.4980 260° West 407 468 36,000  Level FlightAware
01:00PM 36.8890 -100.5690 260° West 407 468 36,000  Level FlightAware
01:00PM 36.8790 -100.6420 260° West 407 468 36,000  Level FlightAware
01:01PM 36.8690 -100.7130 260° West 407 468 36,000  Level FlightAware
01:02PM 36.8580 -100.7860 259° West 407 468 36,000  Level FlightAware
01:02PM 36.8480 -100.8570 260° West 407 468 36,000  Level FlightAware
01:03PM 36.8380 -100.9300 260° West 407 468 36,000  Level FlightAware
01:03PM 36.8280 -101.0010 260° West 407 468 36,000  Level FlightAware
01:04PM 36.8180 -101.0740 260° West 407 468 36,000  Level FlightAware
01:05PM 36.8080 -101.1460 260° West 407 468 36,000  Level FlightAware
01:05PM 36.7980 -101.2170 260° West 407 468 36,000  Level FlightAware
01:06PM 36.7880 -101.2880 260° West 407 468 36,000  Level FlightAware
01:06PM 36.7780 -101.3590 260° West 407 468 36,000  Level FlightAware
01:07PM 36.7461 -101.6328 260° West 393 452 36,000  Level Albuquerque Center
01:08PM 36.7239 -101.7814 259° West 391 450 36,000  Level Albuquerque Center
01:09PM 36.7058 -101.9106 260° West 393 452 36,000  Level Albuquerque Center
01:10PM 36.6872 -102.0403 260° West 396 456 36,000  Level Albuquerque Center
01:12PM 36.6644 -102.1908 259° West 396 456 36,000  Level Albuquerque Center
01:13PM 36.6442 -102.3344 260° West 394 453 36,000  Level Albuquerque Center
01:14PM 36.6236 -102.4675 259° West 393 452 36,000  Level Albuquerque Center
01:15PM 36.6028 -102.6006 259° West 393 452 36,000  Level Albuquerque Center
01:16PM 36.5828 -102.7319 259° West 392 451 36,000  Level Albuquerque Center
01:17PM 36.5631 -102.8622 259° West 386 444 36,000  Level Albuquerque Center
01:18PM 36.5417 -103.0019 259° West 385 443 36,000  Level Albuquerque Center
01:19PM 36.5222 -103.1336 260° West 385 443 36,000  Level Albuquerque Center
01:20PM 36.4975 -103.2867 259° West 385 443 36,000  Level Albuquerque Center
01:21PM 36.4767 -103.4186 259° West 385 443 36,000  Level Albuquerque Center
01:22PM 36.4561 -103.5525 259° West 390 449 36,000  Level Albuquerque Center
01:23PM 36.4344 -103.6864 259° West 392 451 36,000  Level Albuquerque Center
01:24PM 36.4128 -103.8192 259° West 392 451 36,000  Level Albuquerque Center
01:25PM 36.3903 -103.9522 258° West 391 450 36,000  Level Albuquerque Center
01:26PM 36.3689 -104.0844 259° West 389 448 36,000  Level Albuquerque Center
01:27PM 36.3431 -104.2383 258° West 388 447 36,000  Level Albuquerque Center
01:28PM 36.3203 -104.3711 258° West 391 450 36,000  Level Albuquerque Center
01:29PM 36.2986 -104.5042 259° West 391 450 36,000  Level Albuquerque Center
01:30PM 36.2764 -104.6375 258° West 392 451 36,000  Level Albuquerque Center
01:31PM 36.2536 -104.7706 258° West 393 452 36,000  Level Albuquerque Center
01:32PM 36.2306 -104.9042 258° West 394 453 36,000  Level Albuquerque Center
01:33PM 36.2036 -105.0603 258° West 395 455 36,000  Level Albuquerque Center
01:39PM 36.0650 -105.8390 258° West 406 467 36,000  Level FlightAware
01:39PM 36.0530 -105.9060 258° West 406 467 36,000  Level FlightAware
01:40PM 36.0380 -105.9910 258° West 405 466 36,000  Level FlightAware
01:41PM 36.0230 -106.0740 257° West 405 466 36,000  Level FlightAware
01:41PM 36.0080 -106.1550 257° West 403 464 36,000  Level FlightAware
01:42PM 35.9950 -106.2250 257° West 403 464 36,000  Level FlightAware
01:42PM 35.9800 -106.3070 257° West 402 463 36,000  Level FlightAware
01:43PM 35.9660 -106.3830 257° West 403 464 36,000  Level FlightAware
01:44PM 35.9510 -106.4600 256° West 404 465 36,000  Level FlightAware
01:44PM 35.9360 -106.5440 258° West 403 464 36,000  Level FlightAware
01:45PM 35.9210 -106.6190 256° West 404 465 36,000  Level FlightAware
01:45PM 35.9060 -106.7000 257° West 405 466 36,000  Level FlightAware
01:46PM 35.8910 -106.7820 257° West 405 466 36,000  Level FlightAware
01:47PM 35.8770 -106.8550 257° West 406 467 36,000  Level FlightAware
01:47PM 35.8590 -106.9490 257° West 406 467 36,000  Level FlightAware
01:48PM 35.8440 -107.0260 257° West 407 468 36,000  Level FlightAware
01:48PM 35.8280 -107.1100 257° West 408 470 36,000  Level FlightAware
01:49PM 35.8140 -107.1850 257° West 409 471 36,000  Level FlightAware
01:50PM 35.7980 -107.2650 256° West 411 473 36,000  Level FlightAware
01:50PM 35.7820 -107.3500 257° West 412 474 36,000  Level FlightAware
01:51PM 35.7660 -107.4320 257° West 411 473 36,000  Level FlightAware
01:51PM 35.7510 -107.5060 256° West 411 473 36,000  Level FlightAware
01:52PM 35.7380 -107.5710 256° West 411 473 36,000  Level FlightAware
01:52PM 35.7200 -107.6640 257° West 410 472 36,000  Level FlightAware
01:53PM 35.7060 -107.7360 257° West 408 470 36,000  Level FlightAware
01:54PM 35.6880 -107.8260 256° West 409 471 36,000  Level FlightAware
01:54PM 35.6730 -107.9000 256° West 408 470 36,000  Level FlightAware
01:55PM 35.6560 -107.9840 256° West 407 468 36,000  Level FlightAware
01:55PM 35.6410 -108.0600 256° West 406 467 36,000  Level FlightAware
01:56PM 35.6290 -108.1190 256° West 405 466 36,000  Level FlightAware
01:56PM 35.6130 -108.1980 256° West 404 465 36,000  Level FlightAware
01:57PM 35.5970 -108.2770 256° West 405 466 36,000  Level FlightAware
01:58PM 35.5810 -108.3580 256° West 405 466 36,000  Level FlightAware
01:58PM 35.5640 -108.4400 256° West 405 466 36,000  Level FlightAware
01:59PM 35.5500 -108.5110 256° West 405 466 36,000  Level FlightAware
02:00PM 35.5360 -108.5790 256° West 405 466 36,000  Level FlightAware
02:00PM 35.5220 -108.6470 256° West 405 466 36,000  Level FlightAware
02:01PM 35.5080 -108.7160 256° West 405 466 36,000  Level FlightAware
02:01PM 35.4940 -108.7860 256° West 405 466 36,000  Level FlightAware
02:02PM 35.4850 -108.8320 257° West 405 466 36,000  Level FlightAware
02:02PM 35.4710 -108.8980 255° West 405 466 36,000  Level FlightAware
02:03PM 35.4570 -108.9660 256° West 405 466 36,000  Level FlightAware
02:04PM 35.4430 -109.0370 256° West 405 466 36,000  Level FlightAware
02:04PM 35.3990 -109.2300 254° West 412 474 36,000  Level FlightAware
02:05PM 35.3830 -109.3070 256° West 413 475 36,000  Level FlightAware
02:05PM 35.3680 -109.3780 255° West 413 475 36,000  Level FlightAware
02:06PM 35.3490 -109.4680 256° West 413 475 36,000  Level FlightAware
02:06PM 35.3320 -109.5450 255° West 413 475 36,000  Level FlightAware
02:07PM 35.3150 -109.6260 256° West 413 475 36,000  Level FlightAware
02:08PM 35.2960 -109.7120 255° West 413 475 36,000  Level FlightAware
02:08PM 35.2780 -109.7940 255° West 412 474 36,000  Level FlightAware
02:09PM 35.2630 -109.8650 256° West 412 474 36,000  Level FlightAware
02:09PM 35.2450 -109.9470 255° West 410 472 36,000  Level FlightAware
02:10PM 35.2280 -110.0240 255° West 410 472 36,000  Level FlightAware
02:11PM 35.2100 -110.1050 255° West 408 470 36,000  Level FlightAware
02:11PM 35.1950 -110.1740 255° West 408 470 36,000  Level FlightAware
02:12PM 35.1760 -110.2570 254° West 406 467 36,000  Level FlightAware
02:12PM 35.1600 -110.3340 256° West 405 466 36,000  Level FlightAware
02:13PM 35.1420 -110.4130 254° West 404 465 36,000  Level FlightAware
02:14PM 35.1230 -110.4970 255° West 403 464 36,000  Level FlightAware
02:14PM 35.1070 -110.5670 254° West 402 463 36,000  Level FlightAware
02:15PM 35.0900 -110.6450 255° West 401 461 36,000  Level FlightAware
02:15PM 35.0720 -110.7230 254° West 401 461 36,000  Level FlightAware
02:16PM 35.0560 -110.7940 255° West 402 463 36,000  Level FlightAware
02:16PM 35.0380 -110.8720 254° West 401 461 36,000  Level FlightAware
02:17PM 35.0210 -110.9500 255° West 402 463 36,000  Level FlightAware
02:18PM 35.0050 -111.0200 254° West 402 463 36,000  Level FlightAware
02:18PM 34.9880 -111.0940 254° West 403 464 36,000  Level FlightAware
02:19PM 34.9690 -111.1770 254° West 404 465 36,000  Level FlightAware
02:19PM 34.9500 -111.2560 254° West 405 466 36,000  Level FlightAware
02:20PM 34.9320 -111.3360 255° West 406 467 36,000  Level FlightAware
02:20PM 34.9160 -111.4050 254° West 404 465 36,000  Level FlightAware
02:21PM 34.8990 -111.4760 254° West 403 464 36,000  Level FlightAware
02:22PM 34.8810 -111.5540 254° West 403 464 36,000  Level FlightAware
02:22PM 34.8610 -111.6380 254° West 402 463 36,000  Level FlightAware
02:23PM 34.8450 -111.7060 254° West 401 461 36,000  Level FlightAware
02:23PM 34.8260 -111.7890 254° West 399 459 36,000  Level FlightAware
02:24PM 34.8080 -111.8650 254° West 398 458 36,000  Level FlightAware
02:25PM 34.7890 -111.9440 254° West 397 457 36,000  Level FlightAware
02:25PM 34.7730 -112.0110 254° West 396 456 36,000  Level FlightAware
02:26PM 34.7550 -112.0850 254° West 396 456 36,000  Level FlightAware
02:26PM 34.7370 -112.1600 254° West 396 456 36,000  Level FlightAware
02:27PM 34.7180 -112.2420 254° West 396 456 36,000  Level FlightAware
02:27PM 34.7010 -112.3130 254° West 397 457 36,000  Level FlightAware
02:28PM 34.6820 -112.3910 254° West 398 458 36,000  Level FlightAware
02:29PM 34.6640 -112.4630 253° West 399 459 36,000  Level FlightAware
02:29PM 34.6460 -112.5370 254° West 400 460 36,000  Level FlightAware
02:30PM 34.6270 -112.6180 254° West 401 461 36,000  Level FlightAware
02:30PM 34.6100 -112.6870 253° West 401 461 36,000  Level FlightAware
02:31PM 34.5910 -112.7650 254° West 401 461 36,000  Level FlightAware
02:32PM 34.5700 -112.8460 253° West 402 463 36,000  Level FlightAware
02:32PM 34.5530 -112.9160 254° West 402 463 36,000  Level FlightAware
02:33PM 34.5340 -112.9930 253° West 403 464 36,000  Level FlightAware
02:33PM 34.5150 -113.0700 253° West 404 465 36,000  Level FlightAware
02:34PM 34.4960 -113.1490 254° West 405 466 36,000  Level FlightAware
02:34PM 34.4780 -113.2180 252° West 406 467 36,000  Level FlightAware
02:35PM 34.4590 -113.2970 254° West 406 467 36,000  Level FlightAware
02:36PM 34.4390 -113.3760 253° West 407 468 36,000  Level FlightAware
02:36PM 34.4190 -113.4530 253° West 408 470 36,000  Level FlightAware
02:37PM 34.3970 -113.5400 253° West 409 471 36,000  Level FlightAware
02:38PM 34.3780 -113.6160 253° West 410 472 36,000  Level FlightAware
02:38PM 34.3600 -113.6890 253° West 410 472 36,000 -900 Level FlightAware
02:39PM 34.3390 -113.7690 252° West 407 468 35,000 -1,680 Descending FlightAware
02:39PM 34.3180 -113.8510 253° West 409 471 34,000 -900 Descending FlightAware
02:40PM 34.3010 -113.9180 253° West 411 473 34,000  Level FlightAware
02:40PM 34.2800 -114.0010 253° West 411 473 34,000  Level FlightAware
02:41PM 34.2600 -114.0740 252° West 412 474 34,000  Level FlightAware
02:42PM 34.2420 -114.1460 253° West 412 474 34,000  Level FlightAware
02:42PM 34.2210 -114.2290 253° West 413 475 34,000 -180 Level FlightAware
02:43PM 34.2020 -114.3020 253° West 401 461 33,800 -720 Descending FlightAware
02:43PM 34.1840 -114.3690 252° West 385 443 33,100 -840 Descending FlightAware
02:44PM 34.1570 -114.4440 247° West 377 434 32,700 -1,320 Descending FlightAware
02:45PM 34.1150 -114.5400 242° Southwest 366 421 31,000 -1,020 Descending FlightAware
02:46PM 34.0830 -114.6140 242° Southwest 366 421 31,000  Level FlightAware
02:46PM 34.0600 -114.6700 244° Southwest 366 421 31,000  Level FlightAware
02:47PM 34.0280 -114.7440 242° Southwest 366 421 31,000  Level FlightAware
02:48PM 34.0050 -114.8000 244° Southwest 366 421 31,000  Level FlightAware
02:48PM 33.9810 -114.8550 242° Southwest 366 421 31,000  Level FlightAware
02:49PM 33.9510 -114.9260 243° Southwest 366 421 31,000  Level FlightAware
02:50PM 33.9270 -114.9840 244° Southwest 366 421 31,000  Level FlightAware
02:50PM 33.9040 -115.0390 243° Southwest 366 421 31,000  Level FlightAware
02:51PM 33.8800 -115.0950 243° Southwest 366 421 31,000  Level FlightAware
02:52PM 33.8560 -115.1520 243° Southwest 366 421 31,000  Level FlightAware
02:52PM 33.8320 -115.2080 243° Southwest 366 421 31,000  Level FlightAware
02:53PM 33.8080 -115.2650 243° Southwest 366 421 31,000 -3,360 Level FlightAware
02:54PM 33.7080 -115.4970 243° Southwest 381 438 26,100 -3,300 Descending FlightAware
02:55PM 33.6650 -115.5970 243° Southwest 378 435 25,200 -1,380 Descending FlightAware
02:55PM 33.6380 -115.6610 243° Southwest 372 428 24,200 -1,140 Descending FlightAware
02:56PM 33.6110 -115.7240 243° Southwest 364 419 24,000 -180 Descending FlightAware
02:56PM 33.5860 -115.7810 242° Southwest 363 418 24,000  Level FlightAware
02:57PM 33.5570 -115.8490 243° Southwest 362 417 24,000 -180 Level FlightAware
02:57PM 33.5290 -115.9110 242° Southwest 363 418 23,800 -480 Descending FlightAware
02:58PM 33.5150 -115.9350 235° Southwest 360 414 23,600 -960 Descending FlightAware
02:58PM 33.4740 -115.9820 224° Southwest 357 411 23,000 -1,080 Descending FlightAware
02:59PM 33.4280 -116.0270 219° Southwest 355 409 22,400 -1,080 Descending FlightAware
02:59PM 33.3850 -116.0700 220° Southwest 354 407 21,800 -960 Descending FlightAware
03:00PM 33.3340 -116.1210 220° Southwest 356 410 21,200 -1,080 Descending FlightAware
03:01PM 33.2890 -116.1650 219° Southwest 352 405 20,500 -1,500 Descending FlightAware
03:01PM 33.2520 -116.2020 220° Southwest 346 398 19,600 -1,800 Descending FlightAware
03:02PM 33.2100 -116.2430 219° Southwest 342 394 18,600 -1,800 Descending FlightAware
03:02PM 33.1680 -116.2850 220° Southwest 336 387 17,500 -1,800 Descending FlightAware
03:03PM 33.1240 -116.3270 219° Southwest 333 383 16,500 -1,800 Descending FlightAware
03:04PM 33.0830 -116.3680 220° Southwest 328 377 15,400 -1,860 Descending FlightAware
03:04PM 33.0420 -116.4080 219° Southwest 324 373 14,400 -1,740 Descending FlightAware
03:05PM 33.0010 -116.4460 218° Southwest 319 367 13,400 -1,680 Descending FlightAware
03:05PM 32.9770 -116.4670 216° Southwest 319 367 12,900 -1,440 Descending FlightAware
03:06PM 32.9450 -116.5130 230° Southwest 309 356 12,100 -780 Descending FlightAware
03:06PM 32.9150 -116.5600 233° Southwest 303 349 12,000 -240 Descending FlightAware
03:07PM 32.8850 -116.6060 232° Southwest 289 333 11,800 -1,200 Descending FlightAware
03:07PM 32.8510 -116.6590 233° Southwest 287 330 10,500 -1,920 Descending FlightAware
03:08PM 32.8320 -116.6890 233° Southwest 286 329 9,900 -1,500 Descending FlightAware
03:08PM 32.8150 -116.7140 231° Southwest 283 326 9,400 -1,440 Descending FlightAware
03:08PM 32.8050 -116.7300 233° Southwest 281 323 9,100 -1,320 Descending FlightAware
03:09PM 32.7860 -116.7600 233° Southwest 276 318 8,600 -1,380 Descending FlightAware
03:09PM 32.7700 -116.7840 232° Southwest 272 313 8,100 -1,620 Descending FlightAware
03:10PM 32.7530 -116.8100 232° Southwest 271 312 7,500 -1,620 Descending FlightAware
03:10PM 32.7390 -116.8330 234° Southwest 266 306 7,000 -1,800 Descending FlightAware
03:10PM 32.7270 -116.8590 241° Southwest 269 310 6,300 -1,980 Descending FlightAware
03:11PM 32.7160 -116.8860 244° Southwest 269 310 5,700 -1,740 Descending FlightAware
03:11PM 32.7090 -116.9050 246° West 272 313 5,200 -2,160 Descending FlightAware
03:11PM 32.6990 -116.9360 249° West 277 319 4,400 -1,680 Descending FlightAware
03:12PM 32.6980 -116.9800 268° West 266 306 3,800 -900 Descending FlightAware
03:12PM 32.6980 -117.0160 270° West 230 265 3,600 -300 Descending FlightAware
03:12PM 32.6970 -117.0330 266° West 208 239 3,600 -180 Level FlightAware
03:13PM 32.7010 -117.0580 281° West 167 192 3,500 -540 Descending FlightAware
03:13PM 32.7050 -117.0750 286° West 145 167 3,200 -1,440 Descending FlightAware
03:13PM 32.7100 -117.0910 290° West 156 180 2,500 -2,100 Descending FlightAware
03:14PM 32.7140 -117.1070 287° West 156 180 1,900 -1,680 Descending FlightAware
03:14PM 32.7160 -117.1180 282° West 148 170 1,600 -1,320 Descending FlightAware
03:14PM 32.7210 -117.1380 287° West 137 158 1,000 -1,320 Descending FlightAware
03:15PM 32.7250 -117.1530 288° West 134 154 600 -1,080 Descending FlightAware
03:15PM 32.7280 -117.1670 284° West 134 154 300 -540 Descending FlightAware
03:16PM 32.7340 -117.1910 287° West 135 155 100 -360 Descending FlightAware